createdAt,value
2023-08-27T00:01:31.653Z,19.45
2023-08-27T00:21:31.612Z,19.25
2023-08-27T01:01:31.634Z,19.29
2023-08-27T01:21:31.534Z,19.12
2023-08-27T01:41:31.497Z,19.33
2023-08-27T02:01:31.469Z,19.32
2023-08-27T02:21:31.448Z,19.52
2023-08-27T02:41:31.402Z,19.57
2023-08-27T03:01:31.392Z,19.82
2023-08-27T03:21:31.356Z,19.73
2023-08-27T03:41:31.338Z,19.73
2023-08-27T04:01:31.296Z,19.72
2023-08-27T04:21:31.265Z,19.84
2023-08-27T04:41:31.245Z,19.86
2023-08-27T05:01:31.214Z,19.79
2023-08-27T05:21:31.177Z,19.83
2023-08-27T05:41:31.146Z,19.95
2023-08-27T06:01:31.113Z,19.83
2023-08-27T06:21:31.149Z,19.91
2023-08-27T06:41:31.049Z,19.72
2023-08-27T07:01:31.017Z,19.78
2023-08-27T07:21:30.990Z,19.94
2023-08-27T07:41:30.969Z,19.70
2023-08-27T08:01:30.944Z,19.58
2023-08-27T08:21:30.910Z,19.30
2023-08-27T08:41:30.890Z,19.22
2023-08-27T09:01:30.847Z,19.02
2023-08-27T09:21:30.822Z,19.35
2023-08-27T09:41:30.786Z,19.44
2023-08-27T10:01:30.744Z,19.34
2023-08-27T10:21:30.726Z,19.45
2023-08-27T10:41:30.708Z,19.57
2023-08-27T11:01:30.669Z,19.77
2023-08-27T11:21:30.639Z,19.86
2023-08-27T11:41:30.620Z,19.54
2023-08-27T12:01:30.581Z,19.51
2023-08-27T12:21:30.695Z,19.36
2023-08-27T12:41:30.510Z,19.29
2023-08-27T13:01:30.485Z,19.17
2023-08-27T13:21:30.459Z,19.14
2023-08-27T13:41:30.437Z,19.03
2023-08-27T14:01:30.409Z,19.30
2023-08-27T14:21:30.384Z,19.57
2023-08-27T14:41:30.344Z,19.67
2023-08-27T15:21:30.290Z,19.57
2023-08-27T15:41:30.266Z,19.58
2023-08-27T16:01:30.222Z,19.53
2023-08-27T16:21:30.208Z,19.32
2023-08-27T16:41:30.163Z,19.63
2023-08-27T17:01:30.137Z,19.59
2023-08-27T17:21:30.114Z,19.48
2023-08-27T17:41:30.095Z,19.60
2023-08-27T18:01:30.052Z,19.57
2023-08-27T18:21:30.022Z,19.60
2023-08-27T18:41:30.003Z,19.32
2023-08-27T19:01:30.045Z,19.09
2023-08-27T19:21:29.941Z,18.94
2023-08-27T19:41:29.897Z,18.87
2023-08-27T20:01:29.893Z,19.02
2023-08-27T20:21:29.841Z,18.74
2023-08-27T20:41:29.807Z,18.68
2023-08-27T21:01:29.795Z,18.77
2023-08-27T21:21:29.743Z,18.87
2023-08-27T21:41:29.728Z,18.81
2023-08-27T22:01:29.701Z,18.74
2023-08-27T22:21:29.674Z,18.65
2023-08-27T22:41:29.654Z,18.64
2023-08-27T23:01:29.624Z,18.44
2023-08-27T23:41:29.565Z,18.56
